Time;durP1;ratioP1;P1;durP2;ratioP2;P2;SDS_P1;SDS_P2;PMS_P1;PMS_P2;Temp;Humidity;BMP_temperature;BMP_pressure;BME280_temperature;BME280_humidity;BME280_pressure;Samples;Min_cycle;Max_cycle;Signal;HPM_P1;HPM_P2
2021/10/01 00:00:31;;;;;;;5.30;1.70;;;;;;;6.50;97.57;97434.72;4998408;28;20049;-62
2021/10/01 00:03:16;;;;;;;3.53;1.98;;;;;;;6.43;98.02;97434.41;4993597;28;20038;-61
2021/10/01 00:06:02;;;;;;;3.97;1.70;;;;;;;6.35;97.34;97432.50;4984361;28;20038;-62
2021/10/01 00:08:48;;;;;;;4.65;2.33;;;;;;;6.30;97.72;97431.53;4997204;28;20100;-62
2021/10/01 00:11:34;;;;;;;6.43;1.70;;;;;;;6.33;98.64;97435.53;4998273;28;20049;-62
2021/10/01 00:14:21;;;;;;;3.80;1.70;;;;;;;6.25;97.97;97436.34;4960925;28;20133;-61
2021/10/01 00:17:09;;;;;;;4.32;1.80;;;;;;;6.23;99.61;97430.41;4972925;28;20049;-62
2021/10/01 00:19:55;;;;;;;3.03;1.70;;;;;;;6.30;99.58;97425.28;4979491;28;20046;-62
2021/10/01 00:22:41;;;;;;;3.95;1.65;;;;;;;6.31;99.52;97424.16;4976811;28;20157;-62
2021/10/01 00:25:26;;;;;;;6.07;2.22;;;;;;;6.27;99.63;97425.94;4974609;28;20046;-62
2021/10/01 00:28:12;;;;;;;4.75;1.58;;;;;;;6.32;99.71;97432.00;4975154;28;20047;-63
2021/10/01 00:30:58;;;;;;;4.60;1.70;;;;;;;6.33;99.86;97421.91;4979837;28;20057;-61
2021/10/01 00:33:43;;;;;;;5.10;2.05;;;;;;;6.28;100.00;97417.47;4979115;28;20042;-61
2021/10/01 00:36:29;;;;;;;7.40;1.58;;;;;;;6.27;99.41;97413.13;4976241;28;20498;-60
2021/10/01 00:39:15;;;;;;;3.28;1.67;;;;;;;6.27;99.69;97415.84;4973857;28;20105;-61
2021/10/01 00:42:01;;;;;;;5.40;1.90;;;;;;;6.34;98.83;97420.00;4996846;28;20042;-60
2021/10/01 00:44:47;;;;;;;4.40;1.80;;;;;;;6.28;99.38;97414.75;5005772;28;20042;-61
2021/10/01 00:47:33;;;;;;;4.22;1.92;;;;;;;6.27;99.16;97415.84;4998119;28;20049;-61
2021/10/01 00:50:19;;;;;;;5.35;1.70;;;;;;;6.21;99.34;97408.97;5001802;28;20121;-61
2021/10/01 00:53:06;;;;;;;5.22;1.70;;;;;;;6.23;99.65;97412.19;5000283;28;20041;-61
2021/10/01 00:55:51;;;;;;;5.07;2.05;;;;;;;6.17;99.87;97408.00;5009068;28;20057;-62
2021/10/01 00:58:37;;;;;;;3.40;1.60;;;;;;;5.96;99.66;97401.59;5005688;28;20045;-61
2021/10/01 01:01:23;;;;;;;5.00;1.85;;;;;;;5.90;100.00;97400.91;4999073;28;20045;-62
2021/10/01 01:04:10;;;;;;;4.82;1.88;;;;;;;5.86;100.00;97395.31;5004540;28;20045;-60
2021/10/01 01:07:00;;;;;;;4.57;2.05;;;;;;;5.87;100.00;97391.50;5017113;28;20037;-59
2021/10/01 01:10:16;;;;;;;3.65;1.45;;;;;;;5.75;100.00;97391.31;5000833;28;20050;-62
2021/10/01 01:13:08;;;;;;;3.17;1.55;;;;;;;5.67;100.00;97392.09;4999588;28;21213;-61
2021/10/01 01:16:04;;;;;;;5.25;1.65;;;;;;;5.82;100.00;97388.94;5005581;28;20042;-59
2021/10/01 01:18:54;;;;;;;5.57;1.73;;;;;;;5.79;100.00;97386.84;4996193;28;20041;-61
2021/10/01 01:21:57;;;;;;;2.70;1.77;;;;;;;5.76;100.00;97373.88;5006988;28;20124;-61
2021/10/01 01:25:03;;;;;;;4.20;2.25;;;;;;;5.73;100.00;97374.53;5001367;28;20042;-60
2021/10/01 01:28:05;;;;;;;3.40;2.30;;;;;;;5.63;100.00;97370.19;4997318;28;20046;-60
2021/10/01 01:30:51;;;;;;;3.22;2.08;;;;;;;5.68;100.00;97359.16;5005257;28;20065;-61
2021/10/01 01:33:40;;;;;;;4.00;1.60;;;;;;;5.74;100.00;97360.63;4995512;28;20446;-61
2021/10/01 01:36:26;;;;;;;4.30;1.77;;;;;;;5.70;100.00;97358.84;4998818;28;20053;-61
2021/10/01 01:39:14;;;;;;;5.80;1.58;;;;;;;5.62;100.00;97354.19;4994425;28;20727;-61
2021/10/01 01:42:00;;;;;;;3.33;1.70;;;;;;;5.66;100.00;97353.25;5001077;28;20526;-61
2021/10/01 01:44:47;;;;;;;5.72;2.00;;;;;;;5.65;100.00;97351.66;5001281;28;20128;-61
2021/10/01 01:47:33;;;;;;;3.63;1.80;;;;;;;5.62;100.00;97346.03;4999670;28;20085;-61
2021/10/01 01:50:20;;;;;;;6.03;2.20;;;;;;;5.57;100.00;97348.94;4992893;28;20073;-61
2021/10/01 01:53:10;;;;;;;6.28;1.90;;;;;;;5.61;100.00;97341.75;5014997;23;20033;-62
2021/10/01 01:55:58;;;;;;;4.45;1.85;;;;;;;5.63;100.00;97340.28;5000530;28;20102;-60
2021/10/01 01:58:45;;;;;;;4.45;1.60;;;;;;;5.69;100.00;97340.94;5007761;28;20429;-63
2021/10/01 02:01:31;;;;;;;4.97;1.73;;;;;;;5.61;100.00;97339.81;5012312;28;20045;-60
2021/10/01 02:04:18;;;;;;;2.38;1.70;;;;;;;5.55;100.00;97338.38;5007190;28;20045;-62
2021/10/01 02:07:05;;;;;;;8.32;2.05;;;;;;;5.24;100.00;97335.75;5005350;28;20053;-63
2021/10/01 02:09:52;;;;;;;7.50;1.70;;;;;;;4.81;100.00;97334.53;5015994;28;20508;-62
2021/10/01 02:12:39;;;;;;;3.25;1.60;;;;;;;4.94;100.00;97324.66;5007924;28;20068;-62
2021/10/01 02:15:28;;;;;;;3.10;1.80;;;;;;;5.08;100.00;97335.41;5022424;28;20045;-63
2021/10/01 02:18:15;;;;;;;4.22;1.70;;;;;;;5.13;100.00;97329.81;5008851;28;20124;-63
2021/10/01 02:21:03;;;;;;;3.88;1.83;;;;;;;5.19;100.00;97325.84;5018607;28;20041;-63
2021/10/01 02:23:49;;;;;;;3.75;2.25;;;;;;;5.27;100.00;97329.69;5011353;28;20164;-62
2021/10/01 02:26:40;;;;;;;3.13;1.60;;;;;;;5.27;100.00;97321.56;5028510;28;20040;-62
2021/10/01 02:29:41;;;;;;;2.38;1.50;;;;;;;5.27;100.00;97322.34;5014577;28;20535;-63
2021/10/01 02:32:34;;;;;;;5.03;1.67;;;;;;;5.29;100.00;97313.88;5011577;28;20140;-62
2021/10/01 02:35:20;;;;;;;4.95;1.80;;;;;;;5.42;100.00;97323.00;4987659;28;20037;-62
2021/10/01 02:38:06;;;;;;;2.83;1.73;;;;;;;5.43;100.00;97314.53;4991908;28;20107;-62
2021/10/01 02:40:52;;;;;;;4.53;2.08;;;;;;;5.33;100.00;97312.94;4995957;28;20053;-62
2021/10/01 02:43:37;;;;;;;3.72;2.70;;;;;;;5.23;100.00;97307.00;5019686;28;20345;-62
2021/10/01 02:46:23;;;;;;;4.45;2.42;;;;;;;5.25;100.00;97308.28;5014047;28;20115;-61
2021/10/01 02:49:09;;;;;;;7.85;2.30;;;;;;;5.08;100.00;97306.34;5007295;28;20038;-62
2021/10/01 02:52:03;;;;;;;6.47;1.60;;;;;;;5.07;100.00;97306.66;5012782;28;20049;-62
2021/10/01 02:54:58;;;;;;;2.80;1.75;;;;;;;5.17;100.00;97300.94;5015438;28;20072;-63
2021/10/01 02:58:08;;;;;;;3.55;2.28;;;;;;;5.15;100.00;97303.97;5011520;28;20041;-62
2021/10/01 03:00:55;;;;;;;;;;;;;;;5.23;100.00;97304.31;5016528;28;20041;-62
2021/10/01 03:03:43;;;;;;;4.00;1.65;;;;;;;5.26;100.00;97306.38;5014596;28;19917;-63
2021/10/01 03:06:32;;;;;;;3.55;2.00;;;;;;;5.22;100.00;97306.22;5009150;28;20050;-64
2021/10/01 03:09:23;;;;;;;6.78;2.20;;;;;;;5.16;100.00;97297.41;4998862;28;20041;-63
2021/10/01 03:12:11;;;;;;;2.88;1.80;;;;;;;5.16;100.00;97296.59;5009140;28;20099;-63
2021/10/01 03:14:57;;;;;;;4.43;1.67;;;;;;;5.02;100.00;97301.38;5005327;28;20078;-62
2021/10/01 03:17:45;;;;;;;4.00;1.52;;;;;;;4.91;100.00;97301.66;4999913;28;20144;-62
2021/10/01 03:20:30;;;;;;;3.72;1.77;;;;;;;4.83;100.00;97305.16;5015593;28;20038;-63
2021/10/01 03:23:21;;;;;;;4.82;2.15;;;;;;;4.89;100.00;97297.66;5008553;28;20052;-63
2021/10/01 03:26:06;;;;;;;2.53;1.85;;;;;;;5.01;100.00;97286.22;5007649;28;20099;-61
2021/10/01 03:28:52;;;;;;;2.58;1.58;;;;;;;4.95;100.00;97297.22;4999362;28;20041;-62
2021/10/01 03:31:38;;;;;;;6.60;2.20;;;;;;;4.57;100.00;97292.28;5013283;28;20654;-61
2021/10/01 03:34:24;;;;;;;6.40;2.28;;;;;;;4.39;100.00;97290.59;5003181;28;20064;-64
2021/10/01 03:37:10;;;;;;;3.28;1.70;;;;;;;4.54;100.00;97281.25;5014162;28;20075;-65
2021/10/01 03:40:02;;;;;;;4.63;1.83;;;;;;;4.66;100.00;97289.59;5013649;28;20048;-65
2021/10/01 03:42:48;;;;;;;3.67;2.00;;;;;;;4.76;100.00;97285.81;5013720;28;20133;-63
2021/10/01 03:45:34;;;;;;;3.35;2.00;;;;;;;4.78;100.00;97283.56;5012355;28;20049;-64
2021/10/01 03:48:20;;;;;;;2.95;1.70;;;;;;;4.71;100.00;97277.81;5009130;28;20053;-64
2021/10/01 03:51:06;;;;;;;3.67;2.03;;;;;;;4.71;100.00;97278.59;5002331;28;20046;-64
2021/10/01 03:53:54;;;;;;;2.80;1.55;;;;;;;4.62;100.00;97272.34;5012633;28;20049;-63
2021/10/01 03:56:39;;;;;;;5.00;1.80;;;;;;;4.64;100.00;97280.97;5015427;28;20037;-63
2021/10/01 03:59:25;;;;;;;4.78;1.92;;;;;;;4.67;100.00;97277.63;5007534;28;20049;-62
2021/10/01 04:02:11;;;;;;;4.38;2.47;;;;;;;4.68;100.00;97275.72;4998900;28;20037;-63
2021/10/01 04:04:57;;;;;;;4.80;2.30;;;;;;;4.67;100.00;97268.69;5013105;28;20450;-63
2021/10/01 04:07:43;;;;;;;4.55;1.85;;;;;;;4.72;100.00;97271.28;5014177;28;20540;-64
2021/10/01 04:10:29;;;;;;;3.65;2.10;;;;;;;4.71;100.00;97258.81;5008948;28;20044;-64
2021/10/01 04:13:15;;;;;;;4.00;2.33;;;;;;;4.71;100.00;97262.31;5008530;28;20056;-62
2021/10/01 04:16:01;;;;;;;4.72;2.08;;;;;;;4.59;100.00;97252.06;5017868;28;20046;-63
2021/10/01 04:18:46;;;;;;;5.30;2.60;;;;;;;4.35;100.00;97254.38;5016648;28;20045;-64
2021/10/01 04:21:32;;;;;;;6.65;2.22;;;;;;;4.43;100.00;97250.91;5017346;28;20069;-64
2021/10/01 04:24:18;;;;;;;3.63;2.20;;;;;;;4.49;100.00;97252.34;5013887;28;20065;-64
2021/10/01 04:27:03;;;;;;;2.97;2.20;;;;;;;4.28;100.00;97252.09;4999107;28;20072;-62
2021/10/01 04:29:49;;;;;;;6.38;2.10;;;;;;;4.06;100.00;97252.94;5027061;28;20045;-63
2021/10/01 04:32:38;;;;;;;3.25;1.88;;;;;;;4.24;100.00;97244.91;5015048;28;20080;-65
2021/10/01 04:35:24;;;;;;;4.37;2.43;;;;;;;4.30;100.00;97246.38;5012851;28;20246;-65
2021/10/01 04:38:10;;;;;;;3.33;1.73;;;;;;;4.09;100.00;97243.38;5017921;28;20091;-65
2021/10/01 04:40:56;;;;;;;2.83;2.10;;;;;;;3.80;100.00;97240.03;5018054;28;20042;-64
2021/10/01 04:43:41;;;;;;;3.97;2.20;;;;;;;3.73;100.00;97245.09;5025686;28;20072;-63
2021/10/01 04:46:27;;;;;;;3.67;2.38;;;;;;;3.67;100.00;97250.94;5008923;28;20498;-64
2021/10/01 04:49:13;;;;;;;5.25;2.47;;;;;;;3.58;100.00;97242.75;5004868;28;20038;-64
2021/10/01 04:51:58;;;;;;;7.03;2.22;;;;;;;3.44;100.00;97243.63;5017278;28;20136;-63
2021/10/01 04:54:44;;;;;;;4.07;2.22;;;;;;;3.36;100.00;97247.03;5013820;28;20049;-64
2021/10/01 04:57:30;;;;;;;4.95;2.50;;;;;;;3.44;100.00;97248.25;5032124;28;20076;-63
2021/10/01 05:00:15;;;;;;;9.45;2.83;;;;;;;3.72;100.00;97240.78;5013430;28;20069;-63
2021/10/01 05:03:02;;;;;;;4.45;2.33;;;;;;;3.89;100.00;97252.84;5015292;28;20044;-62
2021/10/01 05:05:47;;;;;;;8.20;2.53;;;;;;;3.84;100.00;97253.78;5012776;28;20088;-63
2021/10/01 05:08:33;;;;;;;4.10;2.58;;;;;;;3.77;100.00;97248.78;5012645;28;20068;-64
2021/10/01 05:11:19;;;;;;;4.70;2.65;;;;;;;3.72;100.00;97251.63;5011200;28;20111;-62
2021/10/01 05:14:04;;;;;;;4.80;2.50;;;;;;;3.77;100.00;97248.78;5009163;28;20046;-62
2021/10/01 05:16:50;;;;;;;10.95;2.60;;;;;;;3.70;100.00;97253.84;5015173;28;20611;-62
2021/10/01 05:19:36;;;;;;;5.93;2.92;;;;;;;3.73;100.00;97255.94;5020341;28;20049;-63
2021/10/01 05:22:21;;;;;;;6.15;2.88;;;;;;;3.99;100.00;97258.00;5018734;28;20048;-63
2021/10/01 05:25:08;;;;;;;4.25;2.58;;;;;;;4.33;100.00;97254.66;5005870;28;20140;-66
2021/10/01 05:27:54;;;;;;;4.85;2.90;;;;;;;4.59;100.00;97253.97;5021093;28;20097;-63
2021/10/01 05:30:40;;;;;;;4.32;2.72;;;;;;;4.80;100.00;97254.22;5014879;28;20569;-62
2021/10/01 05:33:25;;;;;;;7.38;2.70;;;;;;;4.86;100.00;97244.00;5013094;28;20613;-64
2021/10/01 05:36:11;;;;;;;5.68;2.80;;;;;;;4.51;100.00;97247.41;4993248;28;20044;-64
2021/10/01 05:38:57;;;;;;;8.77;3.00;;;;;;;4.38;100.00;97243.69;5010630;28;20044;-64
2021/10/01 05:41:43;;;;;;;13.80;3.70;;;;;;;4.28;100.00;97248.59;5021760;28;20040;-64
2021/10/01 05:44:28;;;;;;;9.55;3.35;;;;;;;4.45;100.00;97251.38;5009978;28;20116;-64
2021/10/01 05:47:14;;;;;;;14.38;3.75;;;;;;;4.89;100.00;97243.38;5010887;28;20042;-62
2021/10/01 05:50:04;;;;;;;13.63;3.63;;;;;;;5.13;100.00;97241.03;5015405;28;20798;-64
2021/10/01 05:52:53;;;;;;;12.20;3.80;;;;;;;5.31;100.00;97239.13;5011797;28;20161;-63
2021/10/01 05:55:41;;;;;;;11.10;3.88;;;;;;;5.55;100.00;97233.22;5014446;28;20135;-62
2021/10/01 05:58:27;;;;;;;17.92;3.53;;;;;;;5.86;100.00;97234.13;5005552;28;20508;-64
2021/10/01 06:01:12;;;;;;;15.30;4.10;;;;;;;5.85;100.00;97243.41;5011046;28;20033;-62
2021/10/01 06:03:58;;;;;;;16.30;4.85;;;;;;;6.11;100.00;97244.19;5016911;28;20041;-62
2021/10/01 06:06:44;;;;;;;13.35;3.67;;;;;;;6.41;100.00;97246.16;5015516;28;20107;-62
2021/10/01 06:09:29;;;;;;;14.82;3.97;;;;;;;6.58;100.00;97250.75;5015429;28;20428;-63
2021/10/01 06:12:16;;;;;;;10.38;3.78;;;;;;;6.76;100.00;97248.75;5002348;28;20049;-64
2021/10/01 06:15:03;;;;;;;16.25;3.90;;;;;;;6.87;100.00;97252.69;5013531;28;20077;-62
2021/10/01 06:17:49;;;;;;;21.60;4.72;;;;;;;6.88;100.00;97246.13;5015804;28;20041;-64
2021/10/01 06:20:35;;;;;;;12.27;3.70;;;;;;;6.99;100.00;97241.88;5019893;28;20148;-65
2021/10/01 06:23:23;;;;;;;11.45;3.92;;;;;;;7.18;100.00;97248.81;5022907;28;20040;-64
2021/10/01 06:26:09;;;;;;;13.13;5.45;;;;;;;7.39;100.00;97251.56;5029226;28;20494;-64
2021/10/01 06:28:54;;;;;;;17.90;4.65;;;;;;;7.59;100.00;97252.69;5034931;28;20103;-65
2021/10/01 06:31:40;;;;;;;13.52;4.10;;;;;;;7.60;100.00;97252.34;5030996;28;20048;-62
2021/10/01 06:34:26;;;;;;;25.70;5.07;;;;;;;7.32;100.00;97246.63;5020150;28;20052;-61
2021/10/01 06:37:12;;;;;;;18.70;5.93;;;;;;;6.83;100.00;97241.66;5025997;28;20052;-61
2021/10/01 06:39:58;;;;;;;18.40;6.30;;;;;;;6.26;100.00;97247.50;5015745;28;20041;-62
2021/10/01 06:42:47;;;;;;;14.57;5.13;;;;;;;7.00;100.00;97242.69;5009977;28;20581;-60
2021/10/01 06:45:33;;;;;;;12.70;5.07;;;;;;;8.07;100.00;97245.84;5011474;28;20140;-64
2021/10/01 06:51:22;;;;;;;13.55;4.95;;;;;;;9.62;93.68;97248.00;4995457;28;20651;-62
2021/10/01 07:22:45;;;;;;;14.68;4.78;;;;;;;10.86;85.76;97254.44;5036236;28;20048;-63
2021/10/01 08:20:10;;;;;;;13.40;5.85;;;;;;;11.70;86.96;97249.63;5043463;28;20051;-58
2021/10/01 08:22:56;;;;;;;13.20;5.78;;;;;;;10.93;92.59;97246.38;5023892;28;20075;-59
2021/10/01 08:25:42;;;;;;;9.85;6.05;;;;;;;11.08;92.80;97251.03;5035517;28;20049;-60
2021/10/01 08:28:28;;;;;;;9.50;5.88;;;;;;;11.02;91.00;97246.16;5032442;28;20037;-61
2021/10/01 08:31:15;;;;;;;9.13;5.25;;;;;;;11.78;87.68;97248.63;5030965;28;20600;-60
2021/10/01 08:34:00;;;;;;;7.57;4.85;;;;;;;12.28;85.08;97251.56;5049360;28;20059;-60
2021/10/01 08:36:46;;;;;;;10.45;6.15;;;;;;;11.58;88.58;97245.88;5037139;28;20739;-56
2021/10/01 08:39:32;;;;;;;9.43;5.85;;;;;;;10.86;95.19;97246.22;5037721;28;20143;-57
2021/10/01 08:42:18;;;;;;;8.70;5.80;;;;;;;11.25;93.88;97238.91;5033317;28;20045;-61
2021/10/01 08:45:04;;;;;;;11.30;6.68;;;;;;;10.57;95.47;97247.44;5018689;28;20040;-60
2021/10/01 08:47:51;;;;;;;12.52;6.20;;;;;;;11.33;92.81;97239.84;5028240;28;20045;-62
2021/10/01 08:50:37;;;;;;;12.32;5.93;;;;;;;11.90;89.59;97236.69;5045381;28;20136;-61
2021/10/01 08:53:22;;;;;;;9.95;5.75;;;;;;;11.96;89.30;97232.53;5033047;28;20490;-61
2021/10/01 08:56:08;;;;;;;9.82;5.25;;;;;;;12.72;85.62;97229.97;5016317;28;20132;-60
2021/10/01 08:58:54;;;;;;;11.55;5.07;;;;;;;13.58;80.89;97228.50;5035213;28;20037;-59
2021/10/01 09:01:40;;;;;;;7.78;5.45;;;;;;;12.12;86.50;97222.25;5039288;28;20049;-62
2021/10/01 09:04:26;;;;;;;11.32;6.82;;;;;;;11.52;90.80;97219.84;5025448;28;20720;-61
2021/10/01 09:07:12;;;;;;;11.07;5.95;;;;;;;11.91;91.48;97213.63;5029293;28;20056;-63
2021/10/01 09:09:57;;;;;;;8.40;6.05;;;;;;;12.65;86.06;97209.81;5025436;28;20049;-61
2021/10/01 09:12:53;;;;;;;10.30;5.32;;;;;;;14.27;77.86;97210.78;5031402;28;20046;-63
2021/10/01 09:15:42;;;;;;;9.75;4.93;;;;;;;14.64;74.24;97212.75;5023384;28;20041;-62
2021/10/01 09:18:29;;;;;;;9.60;4.43;;;;;;;15.91;70.79;97201.28;5028357;28;20045;-60
2021/10/01 09:21:22;;;;;;;6.70;4.15;;;;;;;17.40;65.07;97200.97;5028160;28;20311;-61
2021/10/01 09:24:10;;;;;;;6.63;4.03;;;;;;;17.35;64.57;97199.41;5020133;28;20116;-60
2021/10/01 09:26:57;;;;;;;8.45;4.32;;;;;;;17.63;59.71;97194.97;5028632;28;20045;-60
2021/10/01 09:29:43;;;;;;;7.53;3.97;;;;;;;16.74;63.63;97201.41;5024228;28;20063;-61
2021/10/01 09:32:29;;;;;;;11.55;4.70;;;;;;;18.78;56.40;97191.56;5025929;28;20055;-60
2021/10/01 09:35:16;;;;;;;7.35;3.60;;;;;;;19.77;53.67;97185.44;5021845;28;20041;-61
2021/10/01 09:38:10;;;;;;;6.35;3.70;;;;;;;19.60;53.61;97183.63;5026079;28;20048;-62
2021/10/01 09:41:15;;;;;;;7.25;4.05;;;;;;;17.82;58.91;97179.06;5012100;28;20029;-59
2021/10/01 09:44:05;;;;;;;7.22;4.00;;;;;;;19.14;54.57;97176.56;5032891;28;20047;-60
2021/10/01 09:46:51;;;;;;;6.07;4.28;;;;;;;19.28;53.85;97171.69;5031665;28;20052;-60
2021/10/01 09:49:37;;;;;;;5.72;3.65;;;;;;;18.02;56.79;97165.53;5031177;28;20045;-60
2021/10/01 09:52:23;;;;;;;6.15;3.47;;;;;;;20.38;52.04;97154.03;5019924;28;20057;-60
2021/10/01 09:55:10;;;;;;;4.53;3.25;;;;;;;18.17;55.33;97161.50;5018167;28;20739;-59
2021/10/01 09:58:02;;;;;;;6.25;3.72;;;;;;;17.64;59.17;97156.97;5030619;28;20290;-61
2021/10/01 10:00:52;;;;;;;6.38;3.20;;;;;;;17.95;58.11;97150.53;5022997;28;20033;-60
2021/10/01 10:03:38;;;;;;;;;;;;;;;19.42;52.46;97144.94;5026039;28;20052;-60
2021/10/01 10:06:24;;;;;;;10.27;3.13;;;;;;;18.98;53.65;97141.03;5023433;28;20471;-61
2021/10/01 10:09:09;;;;;;;8.82;3.22;;;;;;;16.54;59.82;97142.97;5025394;28;20600;-60
2021/10/01 10:11:55;;;;;;;10.48;3.28;;;;;;;16.63;60.18;97144.13;5024269;28;20482;-60
2021/10/01 10:14:45;;;;;;;6.15;2.90;;;;;;;17.72;56.69;97139.16;5026638;28;20052;-60
2021/10/01 10:17:31;;;;;;;6.18;3.25;;;;;;;19.08;52.41;97126.28;5019502;28;20049;-59
2021/10/01 10:20:18;;;;;;;7.72;3.20;;;;;;;17.58;58.26;97131.69;5023671;28;20049;-61
2021/10/01 10:23:04;;;;;;;6.38;3.03;;;;;;;17.61;56.88;97119.00;5021312;28;20052;-60
2021/10/01 10:25:50;;;;;;;7.38;3.17;;;;;;;17.51;58.62;97121.41;5021635;28;20055;-60
2021/10/01 10:28:38;;;;;;;9.32;3.17;;;;;;;18.47;55.89;97124.81;5030808;28;20751;-61
2021/10/01 10:31:30;;;;;;;5.78;2.78;;;;;;;17.85;57.92;97112.59;5032272;28;20628;-61
2021/10/01 10:34:26;;;;;;;6.25;3.03;;;;;;;20.30;54.21;97119.16;5021868;28;20126;-60
2021/10/01 10:37:12;;;;;;;5.75;4.00;;;;;;;21.16;50.84;97114.94;5021122;28;20378;-61
2021/10/01 10:40:05;;;;;;;5.30;3.50;;;;;;;21.20;50.54;97103.72;5031766;28;20107;-60
2021/10/01 10:43:00;;;;;;;7.45;3.92;;;;;;;20.50;52.02;97108.13;5029480;28;20044;-60
2021/10/01 10:45:46;;;;;;;4.80;3.47;;;;;;;19.70;53.87;97113.25;5022518;28;20079;-60
2021/10/01 10:48:33;;;;;;;5.60;3.67;;;;;;;19.66;54.21;97106.94;5032598;28;20041;-60
2021/10/01 10:51:18;;;;;;;5.88;3.55;;;;;;;20.20;53.55;97097.84;5034743;28;20596;-58
2021/10/01 10:54:07;;;;;;;5.93;3.00;;;;;;;19.95;54.18;97093.47;5025611;28;20091;-58
2021/10/01 10:57:20;;;;;;;7.53;3.45;;;;;;;19.82;55.32;97093.25;5028689;28;20046;-60
2021/10/01 11:00:30;;;;;;;6.53;3.45;;;;;;;19.71;55.72;97080.69;5018657;28;20123;-60
2021/10/01 11:03:23;;;;;;;5.85;3.63;;;;;;;20.05;54.05;97081.41;5025163;28;20052;-60
2021/10/01 11:06:09;;;;;;;4.65;3.10;;;;;;;20.27;53.06;97083.06;5029045;28;20091;-60
2021/10/01 11:09:13;;;;;;;4.97;3.45;;;;;;;20.29;54.06;97075.09;5031694;28;20040;-61
2021/10/01 11:12:01;;;;;;;8.23;3.72;;;;;;;20.13;53.43;97073.75;5028674;28;20057;-60
2021/10/01 11:15:07;;;;;;;7.28;2.92;;;;;;;20.41;51.28;97064.13;5030500;28;20080;-61
2021/10/01 11:18:11;;;;;;;6.10;3.08;;;;;;;20.15;53.26;97063.00;5026242;28;20043;-59
2021/10/01 11:20:56;;;;;;;6.60;3.58;;;;;;;21.27;49.98;97061.78;5032806;28;20063;-61
2021/10/01 11:23:57;;;;;;;3.35;2.38;;;;;;;21.37;47.83;97051.63;5038502;28;20124;-62
2021/10/01 11:26:47;;;;;;;7.80;2.65;;;;;;;21.75;47.78;97046.47;5030415;28;20041;-61
2021/10/01 11:29:38;;;;;;;;;;;;;;;21.94;47.59;97044.06;5040076;28;20331;-61
2021/10/01 11:32:28;;;;;;;4.97;2.60;;;;;;;22.35;46.80;97041.94;5028456;28;19928;-59
2021/10/01 11:35:16;;;;;;;6.32;2.75;;;;;;;23.22;43.66;97039.19;5028545;28;20056;-59
2021/10/01 11:38:02;;;;;;;9.27;2.42;;;;;;;23.26;43.87;97036.31;5042227;28;20408;-61
2021/10/01 11:40:48;;;;;;;11.38;2.40;;;;;;;23.25;44.16;97032.75;5037236;28;20037;-59
2021/10/01 11:43:45;;;;;;;9.70;4.72;;;;;;;22.82;46.47;97031.09;5036751;28;20465;-61
2021/10/01 11:46:32;;;;;;;9.57;3.22;;;;;;;21.37;49.67;97019.00;5038028;28;20120;-61
2021/10/01 11:49:27;;;;;;;5.13;2.30;;;;;;;21.72;50.09;97013.88;5029873;28;20501;-61
2021/10/01 11:52:16;;;;;;;4.18;2.20;;;;;;;22.66;47.13;97006.81;5029933;28;20049;-63
2021/10/01 11:55:02;;;;;;;5.82;1.98;;;;;;;22.67;47.18;97008.38;5037432;28;20075;-60
2021/10/01 11:57:48;;;;;;;4.85;1.85;;;;;;;22.99;46.06;97001.09;5038832;28;20132;-61
2021/10/01 12:00:34;;;;;;;5.82;2.30;;;;;;;23.37;44.56;96994.88;5037690;28;20096;-62
2021/10/01 12:03:20;;;;;;;7.45;2.00;;;;;;;23.13;46.02;97001.97;5024049;28;20132;-62
2021/10/01 12:06:06;;;;;;;3.55;1.60;;;;;;;23.11;46.78;96990.47;5021021;28;20068;-62
2021/10/01 12:08:57;;;;;;;7.82;2.08;;;;;;;23.75;44.89;96985.72;5028237;28;20040;-60
2021/10/01 12:11:43;;;;;;;3.90;1.60;;;;;;;23.26;46.29;96986.00;5027343;28;20050;-61
2021/10/01 12:14:28;;;;;;;4.75;2.22;;;;;;;22.73;46.68;96980.72;5026530;28;20041;-61
2021/10/01 12:17:14;;;;;;;5.45;1.80;;;;;;;22.95;47.09;96969.72;5008956;28;20410;-62
2021/10/01 12:20:00;;;;;;;2.05;1.20;;;;;;;22.49;46.43;96964.19;5027496;28;20080;-62
2021/10/01 12:22:46;;;;;;;3.28;1.20;;;;;;;22.26;45.84;96964.41;5044235;28;20037;-60
2021/10/01 12:25:31;;;;;;;4.30;1.60;;;;;;;21.73;47.51;96950.53;5047351;28;20485;-60
2021/10/01 12:28:18;;;;;;;3.42;1.27;;;;;;;21.37;49.34;96948.56;5043028;28;20612;-61
2021/10/01 12:31:04;;;;;;;2.33;0.95;;;;;;;21.44;47.94;96942.81;5045620;28;20064;-62
2021/10/01 12:33:50;;;;;;;3.35;1.38;;;;;;;21.46;48.16;96945.97;5048223;28;20751;-60
2021/10/01 12:36:37;;;;;;;3.13;0.95;;;;;;;21.38;48.30;96936.22;5047139;28;20067;-60
2021/10/01 12:39:25;;;;;;;2.72;1.02;;;;;;;21.10;48.93;96930.03;5044049;28;20677;-61
2021/10/01 12:42:14;;;;;;;2.80;0.85;;;;;;;21.30;48.11;96926.44;5042128;28;20040;-60
2021/10/01 12:45:06;;;;;;;0.98;0.70;;;;;;;21.49;45.75;96927.63;5048850;28;20041;-61
2021/10/01 12:47:52;;;;;;;2.60;0.85;;;;;;;21.44;46.95;96920.53;5047438;28;20048;-61
2021/10/01 12:50:37;;;;;;;3.60;1.15;;;;;;;21.24;46.50;96925.38;5031047;28;20048;-61
2021/10/01 12:53:23;;;;;;;3.85;0.85;;;;;;;20.55;48.75;96923.22;5042156;28;20045;-62
2021/10/01 12:56:20;;;;;;;2.00;0.90;;;;;;;20.93;48.07;96923.66;5041417;28;20301;-62
2021/10/01 12:59:06;;;;;;;5.68;2.17;;;;;;;20.92;51.24;96919.31;5044354;28;20501;-64
2021/10/01 13:02:27;;;;;;;4.57;2.10;;;;;;;19.83;53.65;96914.16;5051021;28;20037;-59
2021/10/01 13:05:22;;;;;;;3.58;1.63;;;;;;;19.04;54.91;96907.00;4985609;28;20750;-59
2021/10/01 13:08:11;;;;;;;5.07;2.30;;;;;;;18.94;56.66;96907.94;5033247;28;20652;-60
2021/10/01 13:10:59;;;;;;;7.05;1.40;;;;;;;18.70;56.69;96901.50;5049375;28;20045;-59
2021/10/01 13:13:45;;;;;;;3.63;1.13;;;;;;;18.79;57.99;96898.22;5048513;28;20036;-60
2021/10/01 13:16:31;;;;;;;1.63;1.20;;;;;;;18.63;58.08;96891.25;5044287;28;20378;-61
2021/10/01 13:19:19;;;;;;;3.13;1.30;;;;;;;18.85;56.87;96882.69;5037255;28;20062;-62
2021/10/01 13:22:05;;;;;;;3.33;1.30;;;;;;;19.00;56.59;96886.06;5044982;28;20037;-63
2021/10/01 13:24:55;;;;;;;3.83;1.20;;;;;;;18.96;56.54;96879.78;5043623;28;20593;-61
2021/10/01 13:27:49;;;;;;;5.72;1.65;;;;;;;18.50;59.19;96877.16;5036289;28;20028;-58
2021/10/01 13:30:36;;;;;;;3.47;1.80;;;;;;;18.67;57.58;96880.94;5046739;28;20075;-60
2021/10/01 13:33:23;;;;;;;3.42;1.20;;;;;;;18.58;57.90;96875.06;5028272;28;23327;-61
2021/10/01 13:36:09;;;;;;;3.78;1.17;;;;;;;18.65;58.40;96869.44;5040359;28;20036;-59
2021/10/01 13:38:55;;;;;;;5.82;1.15;;;;;;;18.64;57.95;96873.44;5056831;28;20119;-60
2021/10/01 13:41:42;;;;;;;2.75;1.30;;;;;;;18.87;58.72;96875.53;5055275;28;20049;-61
2021/10/01 13:44:28;;;;;;;2.85;1.30;;;;;;;18.97;58.15;96873.03;5051833;28;20048;-59
2021/10/01 13:47:14;;;;;;;5.10;1.40;;;;;;;18.93;57.46;96873.06;5050348;28;20579;-60
2021/10/01 13:50:01;;;;;;;4.75;1.70;;;;;;;18.86;57.97;96871.19;5056024;28;20040;-59
2021/10/01 13:52:47;;;;;;;5.05;1.80;;;;;;;18.75;59.10;96864.19;5056075;28;20090;-59
2021/10/01 13:55:32;;;;;;;1.90;1.40;;;;;;;18.46;59.77;96862.56;5055996;28;20048;-59
2021/10/01 13:58:19;;;;;;;4.43;1.60;;;;;;;18.33;61.07;96851.22;5052980;28;20040;-60
2021/10/01 14:01:05;;;;;;;5.53;2.17;;;;;;;18.56;61.04;96855.28;5051411;28;20044;-61
2021/10/01 14:03:53;;;;;;;7.78;1.65;;;;;;;18.59;60.64;96854.47;5043161;28;20051;-60
2021/10/01 14:06:39;;;;;;;4.20;2.15;;;;;;;18.68;60.55;96846.41;5081466;23;20068;-65
2021/10/01 14:09:25;;;;;;;7.65;1.83;;;;;;;18.83;59.56;96846.25;5044577;28;20865;-64
2021/10/01 14:12:11;;;;;;;3.05;1.52;;;;;;;18.67;60.62;96842.09;5046595;28;20029;-64
2021/10/01 14:14:57;;;;;;;4.18;1.63;;;;;;;18.49;62.61;96842.31;5035676;28;20041;-64
2021/10/01 14:17:43;;;;;;;4.03;2.00;;;;;;;18.40;62.08;96835.69;5029532;28;20674;-62
2021/10/01 14:20:30;;;;;;;26.67;3.53;;;;;;;18.46;63.76;96845.13;5032594;28;20049;-63
2021/10/01 14:23:16;;;;;;;5.82;1.80;;;;;;;18.38;63.14;96835.31;5030186;28;20041;-65
2021/10/01 14:26:02;;;;;;;5.00;1.83;;;;;;;18.09;62.89;96841.97;5043882;28;20141;-65
2021/10/01 14:28:47;;;;;;;2.22;1.60;;;;;;;17.92;63.42;96838.22;5040519;28;20087;-63
2021/10/01 14:31:33;;;;;;;2.92;1.90;;;;;;;17.90;63.73;96839.84;5035658;28;20045;-64
2021/10/01 14:34:19;;;;;;;5.28;1.90;;;;;;;17.86;62.45;96839.88;5030861;28;20075;-65
2021/10/01 14:37:05;;;;;;;3.05;1.10;;;;;;;17.86;63.13;96836.28;5022560;28;20098;-65